sensor_id;sensor_type;location;lat;lon;timestamp;pressure;altitude;pressure_sealevel;temperature;humidity
26083;BME280;13848;49.018;12.078;2023-07-24T00:02:12;97105.47;;;21.39;52.52
26083;BME280;13848;49.018;12.078;2023-07-24T00:04:40;97094.94;;;21.32;52.82
26083;BME280;13848;49.018;12.078;2023-07-24T00:07:06;97093.69;;;21.11;53.34
26083;BME280;13848;49.018;12.078;2023-07-24T00:09:32;97085.03;;;21.04;53.44
26083;BME280;13848;49.018;12.078;2023-07-24T00:11:58;97080.91;;;21.06;53.48
26083;BME280;13848;49.018;12.078;2023-07-24T00:14:24;97062.00;;;21.05;53.57
26083;BME280;13848;49.018;12.078;2023-07-24T00:16:50;97049.00;;;20.96;53.88
26083;BME280;13848;49.018;12.078;2023-07-24T00:19:16;97045.16;;;20.84;54.13
26083;BME280;13848;49.018;12.078;2023-07-24T00:21:43;97041.88;;;20.68;54.03
26083;BME280;13848;49.018;12.078;2023-07-24T00:24:09;97029.22;;;20.72;54.47
26083;BME280;13848;49.018;12.078;2023-07-24T00:26:35;97025.03;;;20.47;54.59
26083;BME280;13848;49.018;12.078;2023-07-24T00:29:01;97025.22;;;20.51;54.10
26083;BME280;13848;49.018;12.078;2023-07-24T00:31:27;97022.38;;;20.56;53.87
26083;BME280;13848;49.018;12.078;2023-07-24T00:33:52;97023.41;;;20.60;53.98
26083;BME280;13848;49.018;12.078;2023-07-24T00:36:18;97024.19;;;20.46;53.84
26083;BME280;13848;49.018;12.078;2023-07-24T00:38:46;97024.63;;;20.54;53.93
26083;BME280;13848;49.018;12.078;2023-07-24T00:41:12;97029.72;;;20.74;53.35
26083;BME280;13848;49.018;12.078;2023-07-24T00:43:38;97037.84;;;20.79;53.48
26083;BME280;13848;49.018;12.078;2023-07-24T00:46:03;97045.47;;;20.82;53.59
26083;BME280;13848;49.018;12.078;2023-07-24T00:48:29;97051.03;;;20.77;53.78
26083;BME280;13848;49.018;12.078;2023-07-24T00:50:56;97058.13;;;20.78;53.61
26083;BME280;13848;49.018;12.078;2023-07-24T00:53:22;97066.84;;;20.80;53.52
26083;BME280;13848;49.018;12.078;2023-07-24T00:55:49;97078.44;;;20.77;53.85
26083;BME280;13848;49.018;12.078;2023-07-24T00:58:16;97070.50;;;20.76;54.15
26083;BME280;13848;49.018;12.078;2023-07-24T01:00:43;97068.69;;;20.71;54.29
26083;BME280;13848;49.018;12.078;2023-07-24T01:03:09;97056.19;;;20.65;54.45
26083;BME280;13848;49.018;12.078;2023-07-24T01:05:35;97060.97;;;20.59;54.96
26083;BME280;13848;49.018;12.078;2023-07-24T01:08:00;97046.53;;;20.35;55.31
26083;BME280;13848;49.018;12.078;2023-07-24T01:10:27;97031.00;;;20.16;55.20
26083;BME280;13848;49.018;12.078;2023-07-24T01:12:59;97027.09;;;20.04;55.10
26083;BME280;13848;49.018;12.078;2023-07-24T01:15:30;97036.44;;;20.03;55.14
26083;BME280;13848;49.018;12.078;2023-07-24T01:17:59;97050.13;;;20.35;54.82
26083;BME280;13848;49.018;12.078;2023-07-24T01:20:28;97067.72;;;20.48;54.66
26083;BME280;13848;49.018;12.078;2023-07-24T01:23:08;97116.81;;;20.58;54.71
26083;BME280;13848;49.018;12.078;2023-07-24T01:25:50;97109.78;;;20.71;53.93
26083;BME280;13848;49.018;12.078;2023-07-24T01:28:17;97112.53;;;20.71;53.34
26083;BME280;13848;49.018;12.078;2023-07-24T01:30:43;97101.16;;;20.78;52.28
26083;BME280;13848;49.018;12.078;2023-07-24T01:33:09;97106.44;;;20.74;52.01
26083;BME280;13848;49.018;12.078;2023-07-24T01:35:36;97106.34;;;20.79;52.09
26083;BME280;13848;49.018;12.078;2023-07-24T01:38:03;97103.00;;;20.82;51.99
26083;BME280;13848;49.018;12.078;2023-07-24T01:40:30;97103.00;;;20.82;51.42
26083;BME280;13848;49.018;12.078;2023-07-24T01:42:58;97089.97;;;20.74;51.24
26083;BME280;13848;49.018;12.078;2023-07-24T01:45:24;97069.19;;;20.73;51.33
26083;BME280;13848;49.018;12.078;2023-07-24T01:47:50;97057.91;;;20.75;51.18
26083;BME280;13848;49.018;12.078;2023-07-24T01:50:16;97065.25;;;20.79;51.07
26083;BME280;13848;49.018;12.078;2023-07-24T01:52:42;97055.31;;;20.83;51.02
26083;BME280;13848;49.018;12.078;2023-07-24T01:55:08;97054.50;;;20.83;51.40
26083;BME280;13848;49.018;12.078;2023-07-24T01:57:34;97060.06;;;20.78;51.40
26083;BME280;13848;49.018;12.078;2023-07-24T02:00:01;97059.16;;;20.82;51.09
26083;BME280;13848;49.018;12.078;2023-07-24T02:02:27;97050.13;;;20.82;51.08
26083;BME280;13848;49.018;12.078;2023-07-24T02:04:53;97049.19;;;20.72;51.03
26083;BME280;13848;49.018;12.078;2023-07-24T02:07:19;97050.72;;;20.65;51.28
26083;BME280;13848;49.018;12.078;2023-07-24T02:09:45;97075.38;;;20.65;51.44
26083;BME280;13848;49.018;12.078;2023-07-24T02:12:11;97089.47;;;20.72;51.39
26083;BME280;13848;49.018;12.078;2023-07-24T02:14:37;97098.28;;;20.69;51.42
26083;BME280;13848;49.018;12.078;2023-07-24T02:17:04;97093.03;;;20.72;51.77
26083;BME280;13848;49.018;12.078;2023-07-24T02:19:30;97065.84;;;20.76;51.42
26083;BME280;13848;49.018;12.078;2023-07-24T02:21:56;97042.28;;;20.75;51.68
26083;BME280;13848;49.018;12.078;2023-07-24T02:26:48;97035.78;;;20.57;52.09
26083;BME280;13848;49.018;12.078;2023-07-24T02:29:13;97037.28;;;20.50;52.51
26083;BME280;13848;49.018;12.078;2023-07-24T02:31:39;97048.16;;;20.55;51.87
26083;BME280;13848;49.018;12.078;2023-07-24T02:34:07;97038.81;;;20.56;51.35
26083;BME280;13848;49.018;12.078;2023-07-24T02:36:33;97039.44;;;20.53;51.58
26083;BME280;13848;49.018;12.078;2023-07-24T02:38:59;97034.47;;;20.55;51.44
26083;BME280;13848;49.018;12.078;2023-07-24T02:41:24;97031.72;;;20.55;51.41
26083;BME280;13848;49.018;12.078;2023-07-24T02:43:50;97027.38;;;20.54;51.16
26083;BME280;13848;49.018;12.078;2023-07-24T02:46:16;97033.56;;;20.59;51.14
26083;BME280;13848;49.018;12.078;2023-07-24T02:48:42;97025.13;;;20.56;51.37
26083;BME280;13848;49.018;12.078;2023-07-24T02:51:09;97025.94;;;20.56;51.16
26083;BME280;13848;49.018;12.078;2023-07-24T02:53:35;97021.97;;;20.49;50.96
26083;BME280;13848;49.018;12.078;2023-07-24T02:56:01;97025.03;;;20.47;51.27
26083;BME280;13848;49.018;12.078;2023-07-24T02:58:27;97011.97;;;20.39;51.19
26083;BME280;13848;49.018;12.078;2023-07-24T03:00:53;97005.88;;;20.28;51.26
26083;BME280;13848;49.018;12.078;2023-07-24T03:03:19;96999.47;;;20.19;51.67
26083;BME280;13848;49.018;12.078;2023-07-24T03:05:45;96993.28;;;20.13;51.70
26083;BME280;13848;49.018;12.078;2023-07-24T03:08:12;96991.66;;;20.12;51.76
26083;BME280;13848;49.018;12.078;2023-07-24T03:10:40;96983.72;;;20.11;51.44
26083;BME280;13848;49.018;12.078;2023-07-24T03:13:06;96980.56;;;20.04;51.68
26083;BME280;13848;49.018;12.078;2023-07-24T03:15:32;96975.25;;;20.12;51.81
26083;BME280;13848;49.018;12.078;2023-07-24T03:17:58;96965.44;;;20.25;51.83
26083;BME280;13848;49.018;12.078;2023-07-24T03:20:23;96967.97;;;20.35;51.81
26083;BME280;13848;49.018;12.078;2023-07-24T03:22:49;96965.94;;;20.27;52.03
26083;BME280;13848;49.018;12.078;2023-07-24T03:25:17;96965.94;;;20.27;52.12
26083;BME280;13848;49.018;12.078;2023-07-24T03:27:43;96967.22;;;20.16;52.65
26083;BME280;13848;49.018;12.078;2023-07-24T03:30:09;96969.75;;;20.12;52.56
26083;BME280;13848;49.018;12.078;2023-07-24T03:32:36;96971.34;;;20.00;52.43
26083;BME280;13848;49.018;12.078;2023-07-24T03:35:02;96971.88;;;20.02;52.26
26083;BME280;13848;49.018;12.078;2023-07-24T03:37:28;96966.72;;;20.14;51.95
26083;BME280;13848;49.018;12.078;2023-07-24T03:39:53;96977.78;;;20.23;52.46
26083;BME280;13848;49.018;12.078;2023-07-24T03:42:28;96981.75;;;20.30;52.46
26083;BME280;13848;49.018;12.078;2023-07-24T03:44:54;96979.69;;;20.22;52.37
26083;BME280;13848;49.018;12.078;2023-07-24T03:47:21;96992.47;;;20.13;52.52
26083;BME280;13848;49.018;12.078;2023-07-24T03:49:47;97003.91;;;20.15;52.60
26083;BME280;13848;49.018;12.078;2023-07-24T03:52:12;97013.16;;;20.19;52.55
26083;BME280;13848;49.018;12.078;2023-07-24T03:54:38;97026.78;;;20.24;51.85
26083;BME280;13848;49.018;12.078;2023-07-24T03:57:04;97030.22;;;20.30;51.96
26083;BME280;13848;49.018;12.078;2023-07-24T03:59:32;97056.09;;;20.37;51.47
26083;BME280;13848;49.018;12.078;2023-07-24T04:01:58;97082.50;;;20.14;51.42
26083;BME280;13848;49.018;12.078;2023-07-24T04:04:24;97090.94;;;19.80;52.08
26083;BME280;13848;49.018;12.078;2023-07-24T04:06:50;97084.69;;;19.56;52.67
26083;BME280;13848;49.018;12.078;2023-07-24T04:09:16;97080.22;;;19.65;52.66
26083;BME280;13848;49.018;12.078;2023-07-24T04:11:42;97062.06;;;19.50;53.20
26083;BME280;13848;49.018;12.078;2023-07-24T04:14:08;97038.47;;;19.35;53.88
26083;BME280;13848;49.018;12.078;2023-07-24T04:16:36;96985.59;;;19.26;54.63
26083;BME280;13848;49.018;12.078;2023-07-24T04:19:02;96930.16;;;19.39;54.09
26083;BME280;13848;49.018;12.078;2023-07-24T04:21:28;96861.75;;;19.45;53.95
26083;BME280;13848;49.018;12.078;2023-07-24T04:23:54;96854.47;;;19.54;53.93
26083;BME280;13848;49.018;12.078;2023-07-24T04:26:20;96877.41;;;19.39;55.30
26083;BME280;13848;49.018;12.078;2023-07-24T04:28:46;96872.94;;;19.10;56.77
26083;BME280;13848;49.018;12.078;2023-07-24T04:31:12;96850.63;;;19.22;56.78
26083;BME280;13848;49.018;12.078;2023-07-24T04:33:39;96845.72;;;19.38;56.17
26083;BME280;13848;49.018;12.078;2023-07-24T04:36:05;96869.34;;;19.48;55.75
26083;BME280;13848;49.018;12.078;2023-07-24T04:38:31;96907.81;;;19.70;55.42
26083;BME280;13848;49.018;12.078;2023-07-24T04:41:00;96914.56;;;19.40;56.65
26083;BME280;13848;49.018;12.078;2023-07-24T04:43:26;96897.56;;;19.62;55.98
26083;BME280;13848;49.018;12.078;2023-07-24T04:45:52;96895.69;;;19.76;55.83
26083;BME280;13848;49.018;12.078;2023-07-24T04:48:18;96896.69;;;19.66;55.95
26083;BME280;13848;49.018;12.078;2023-07-24T04:50:45;96894.47;;;19.82;55.71
26083;BME280;13848;49.018;12.078;2023-07-24T04:53:11;96893.88;;;19.72;56.30
26083;BME280;13848;49.018;12.078;2023-07-24T04:55:38;96910.19;;;19.58;57.10
26083;BME280;13848;49.018;12.078;2023-07-24T04:58:04;96907.41;;;19.63;57.03
26083;BME280;13848;49.018;12.078;2023-07-24T05:00:30;96910.13;;;19.63;57.63
26083;BME280;13848;49.018;12.078;2023-07-24T05:02:56;96911.31;;;19.57;57.71
26083;BME280;13848;49.018;12.078;2023-07-24T05:05:21;96921.09;;;19.44;58.60
26083;BME280;13848;49.018;12.078;2023-07-24T05:07:49;96933.44;;;19.23;59.97
26083;BME280;13848;49.018;12.078;2023-07-24T05:10:15;96925.97;;;19.28;59.75
26083;BME280;13848;49.018;12.078;2023-07-24T05:12:41;96916.72;;;19.24;60.12
26083;BME280;13848;49.018;12.078;2023-07-24T05:15:07;96919.53;;;19.38;59.38
26083;BME280;13848;49.018;12.078;2023-07-24T05:17:33;96919.81;;;19.36;59.29
26083;BME280;13848;49.018;12.078;2023-07-24T05:19:59;96911.38;;;19.52;59.07
26083;BME280;13848;49.018;12.078;2023-07-24T05:22:25;96904.88;;;19.48;58.79
26083;BME280;13848;49.018;12.078;2023-07-24T05:24:53;96908.94;;;19.50;58.84
26083;BME280;13848;49.018;12.078;2023-07-24T05:27:18;96899.41;;;19.48;58.85
26083;BME280;13848;49.018;12.078;2023-07-24T05:29:44;96911.09;;;19.34;59.12
26083;BME280;13848;49.018;12.078;2023-07-24T05:32:10;96916.66;;;19.29;59.67
26083;BME280;13848;49.018;12.078;2023-07-24T05:34:36;96884.84;;;19.52;59.11
26083;BME280;13848;49.018;12.078;2023-07-24T05:37:02;96897.75;;;19.84;58.51
26083;BME280;13848;49.018;12.078;2023-07-24T05:39:29;96885.88;;;19.56;58.93
26083;BME280;13848;49.018;12.078;2023-07-24T05:41:56;96880.19;;;19.53;59.26
26083;BME280;13848;49.018;12.078;2023-07-24T05:44:22;96875.72;;;19.76;59.01
26083;BME280;13848;49.018;12.078;2023-07-24T05:46:48;96877.97;;;19.74;59.03
26083;BME280;13848;49.018;12.078;2023-07-24T05:49:14;96859.63;;;19.74;58.62
26083;BME280;13848;49.018;12.078;2023-07-24T05:51:40;96856.19;;;19.82;58.39
26083;BME280;13848;49.018;12.078;2023-07-24T05:54:06;96879.28;;;19.76;58.38
26083;BME280;13848;49.018;12.078;2023-07-24T05:56:32;96866.69;;;19.61;59.00
26083;BME280;13848;49.018;12.078;2023-07-24T05:58:59;96863.88;;;19.80;58.56
26083;BME280;13848;49.018;12.078;2023-07-24T06:01:25;96866.59;;;19.66;59.13
26083;BME280;13848;49.018;12.078;2023-07-24T06:03:51;96861.56;;;19.55;59.50
26083;BME280;13848;49.018;12.078;2023-07-24T06:06:17;96864.72;;;19.95;58.44
26083;BME280;13848;49.018;12.078;2023-07-24T06:08:43;96869.72;;;19.60;59.40
26083;BME280;13848;49.018;12.078;2023-07-24T06:11:09;96865.59;;;19.76;59.36
26083;BME280;13848;49.018;12.078;2023-07-24T06:13:35;96861.91;;;20.13;58.45
26083;BME280;13848;49.018;12.078;2023-07-24T06:16:02;96853.19;;;20.25;57.84
26083;BME280;13848;49.018;12.078;2023-07-24T06:18:28;96848.91;;;20.33;57.87
26083;BME280;13848;49.018;12.078;2023-07-24T06:20:54;96839.41;;;20.30;57.81
26083;BME280;13848;49.018;12.078;2023-07-24T06:23:20;96843.66;;;20.36;57.66
26083;BME280;13848;49.018;12.078;2023-07-24T06:25:46;96840.19;;;20.44;57.42
26083;BME280;13848;49.018;12.078;2023-07-24T06:28:12;96840.00;;;20.55;57.24
26083;BME280;13848;49.018;12.078;2023-07-24T06:30:38;96848.94;;;20.60;57.21
26083;BME280;13848;49.018;12.078;2023-07-24T06:33:05;96865.75;;;20.67;57.29
26083;BME280;13848;49.018;12.078;2023-07-24T06:35:31;96857.94;;;20.61;56.77
26083;BME280;13848;49.018;12.078;2023-07-24T06:37:57;96849.34;;;20.54;57.22
26083;BME280;13848;49.018;12.078;2023-07-24T06:40:23;96859.69;;;20.57;57.32
26083;BME280;13848;49.018;12.078;2023-07-24T06:42:49;96845.88;;;20.62;57.22
26083;BME280;13848;49.018;12.078;2023-07-24T06:45:15;96838.16;;;20.64;57.76
26083;BME280;13848;49.018;12.078;2023-07-24T06:47:41;96835.63;;;20.40;58.13
26083;BME280;13848;49.018;12.078;2023-07-24T06:50:09;96842.66;;;20.60;57.82
26083;BME280;13848;49.018;12.078;2023-07-24T06:52:35;96840.56;;;20.79;57.61
26083;BME280;13848;49.018;12.078;2023-07-24T06:55:01;96842.59;;;20.87;57.13
26083;BME280;13848;49.018;12.078;2023-07-24T06:57:26;96839.47;;;21.03;56.79
26083;BME280;13848;49.018;12.078;2023-07-24T06:59:52;96852.31;;;20.93;56.96
26083;BME280;13848;49.018;12.078;2023-07-24T07:02:18;96837.38;;;21.22;56.67
26083;BME280;13848;49.018;12.078;2023-07-24T07:04:45;96841.63;;;21.28;56.40
26083;BME280;13848;49.018;12.078;2023-07-24T07:07:12;96850.94;;;21.05;57.29
26083;BME280;13848;49.018;12.078;2023-07-24T07:09:38;96840.97;;;21.09;57.43
26083;BME280;13848;49.018;12.078;2023-07-24T07:12:04;96846.38;;;21.36;57.03
26083;BME280;13848;49.018;12.078;2023-07-24T07:14:30;96856.88;;;21.34;56.67
26083;BME280;13848;49.018;12.078;2023-07-24T07:16:56;96884.78;;;20.86;58.25
26083;BME280;13848;49.018;12.078;2023-07-24T07:19:22;96882.56;;;20.88;58.74
26083;BME280;13848;49.018;12.078;2023-07-24T07:21:48;96875.16;;;20.75;59.70
26083;BME280;13848;49.018;12.078;2023-07-24T07:24:15;96862.16;;;20.94;59.53
26083;BME280;13848;49.018;12.078;2023-07-24T07:26:41;96836.41;;;21.04;59.24
26083;BME280;13848;49.018;12.078;2023-07-24T07:29:07;96833.53;;;21.23;58.82
26083;BME280;13848;49.018;12.078;2023-07-24T07:31:33;96852.09;;;21.26;58.87
26083;BME280;13848;49.018;12.078;2023-07-24T07:33:59;96878.63;;;21.17;58.87
26083;BME280;13848;49.018;12.078;2023-07-24T07:36:25;96874.78;;;21.18;58.96
26083;BME280;13848;49.018;12.078;2023-07-24T07:38:51;96874.53;;;21.28;58.70
26083;BME280;13848;49.018;12.078;2023-07-24T07:41:18;96880.84;;;21.15;59.47
26083;BME280;13848;49.018;12.078;2023-07-24T07:43:44;96885.41;;;20.83;60.79
26083;BME280;13848;49.018;12.078;2023-07-24T07:46:10;96895.75;;;20.86;60.71
26083;BME280;13848;49.018;12.078;2023-07-24T07:48:36;96911.09;;;20.87;61.17
26083;BME280;13848;49.018;12.078;2023-07-24T07:51:02;96929.72;;;21.13;60.42
26083;BME280;13848;49.018;12.078;2023-07-24T07:53:28;96949.91;;;21.17;60.53
26083;BME280;13848;49.018;12.078;2023-07-24T07:55:57;96961.25;;;21.24;60.33
26083;BME280;13848;49.018;12.078;2023-07-24T07:58:25;96972.38;;;21.05;61.45
26083;BME280;13848;49.018;12.078;2023-07-24T08:00:50;97007.50;;;20.89;62.10
26083;BME280;13848;49.018;12.078;2023-07-24T08:03:17;96997.03;;;20.91;61.86
26083;BME280;13848;49.018;12.078;2023-07-24T08:05:42;96992.88;;;21.08;61.88
26083;BME280;13848;49.018;12.078;2023-07-24T08:08:08;96993.97;;;20.93;63.08
26083;BME280;13848;49.018;12.078;2023-07-24T08:10:37;96984.44;;;20.63;64.79
26083;BME280;13848;49.018;12.078;2023-07-24T08:13:02;96991.47;;;20.83;63.82
26083;BME280;13848;49.018;12.078;2023-07-24T08:15:34;97001.09;;;20.80;64.11
26083;BME280;13848;49.018;12.078;2023-07-24T08:18:00;96994.00;;;20.79;64.74
26083;BME280;13848;49.018;12.078;2023-07-24T08:20:25;97001.91;;;20.67;66.65
26083;BME280;13848;49.018;12.078;2023-07-24T08:22:51;97008.41;;;20.71;66.20
26083;BME280;13848;49.018;12.078;2023-07-24T08:25:17;97009.41;;;20.75;67.10
26083;BME280;13848;49.018;12.078;2023-07-24T08:27:43;97012.88;;;20.53;68.01
26083;BME280;13848;49.018;12.078;2023-07-24T08:30:10;97015.28;;;20.68;67.47
26083;BME280;13848;49.018;12.078;2023-07-24T08:32:38;97013.66;;;20.81;67.50
26083;BME280;13848;49.018;12.078;2023-07-24T08:35:05;97009.63;;;20.65;68.84
26083;BME280;13848;49.018;12.078;2023-07-24T08:37:32;97000.09;;;20.76;68.87
26083;BME280;13848;49.018;12.078;2023-07-24T08:39:57;97005.97;;;20.69;69.45
26083;BME280;13848;49.018;12.078;2023-07-24T08:42:23;97003.84;;;20.66;69.74
26083;BME280;13848;49.018;12.078;2023-07-24T08:44:51;97003.56;;;20.82;69.42
26083;BME280;13848;49.018;12.078;2023-07-24T08:47:19;97000.44;;;20.42;71.49
26083;BME280;13848;49.018;12.078;2023-07-24T08:49:47;96983.94;;;20.61;70.97
26083;BME280;13848;49.018;12.078;2023-07-24T08:52:13;96976.13;;;20.68;70.94
26083;BME280;13848;49.018;12.078;2023-07-24T08:54:40;96978.97;;;20.49;72.16
26083;BME280;13848;49.018;12.078;2023-07-24T08:57:06;96959.41;;;20.56;71.67
26083;BME280;13848;49.018;12.078;2023-07-24T08:59:33;96965.75;;;20.37;72.81
26083;BME280;13848;49.018;12.078;2023-07-24T09:01:59;96979.03;;;20.30;73.70
26083;BME280;13848;49.018;12.078;2023-07-24T09:04:25;96971.63;;;20.44;73.05
26083;BME280;13848;49.018;12.078;2023-07-24T09:06:52;96963.69;;;20.15;73.45
26083;BME280;13848;49.018;12.078;2023-07-24T09:09:18;96945.94;;;20.27;74.01
26083;BME280;13848;49.018;12.078;2023-07-24T09:11:49;96944.34;;;20.39;72.51
26083;BME280;13848;49.018;12.078;2023-07-24T09:14:23;96927.41;;;20.37;72.30
26083;BME280;13848;49.018;12.078;2023-07-24T09:16:49;96911.28;;;20.36;71.98
26083;BME280;13848;49.018;12.078;2023-07-24T09:19:18;96893.13;;;20.26;71.53
26083;BME280;13848;49.018;12.078;2023-07-24T09:21:44;96869.00;;;20.28;71.21
26083;BME280;13848;49.018;12.078;2023-07-24T09:24:13;96882.31;;;20.49;70.83
26083;BME280;13848;49.018;12.078;2023-07-24T09:26:49;96898.84;;;20.71;69.85
26083;BME280;13848;49.018;12.078;2023-07-24T09:29:16;96883.03;;;20.54;70.53
26083;BME280;13848;49.018;12.078;2023-07-24T09:31:42;96887.88;;;20.57;70.43
26083;BME280;13848;49.018;12.078;2023-07-24T09:34:14;96885.31;;;20.75;69.97
26083;BME280;13848;49.018;12.078;2023-07-24T09:36:40;96878.06;;;20.92;69.30
26083;BME280;13848;49.018;12.078;2023-07-24T09:39:06;96868.75;;;20.93;69.14
26083;BME280;13848;49.018;12.078;2023-07-24T09:41:33;96869.13;;;21.01;68.62
26083;BME280;13848;49.018;12.078;2023-07-24T09:43:59;96869.28;;;21.18;68.18
26083;BME280;13848;49.018;12.078;2023-07-24T09:46:26;96873.75;;;21.50;67.62
26083;BME280;13848;49.018;12.078;2023-07-24T09:48:52;96865.69;;;21.76;67.16
26083;BME280;13848;49.018;12.078;2023-07-24T09:51:18;96849.09;;;21.81;66.47
26083;BME280;13848;49.018;12.078;2023-07-24T09:53:47;96842.25;;;21.70;64.58
26083;BME280;13848;49.018;12.078;2023-07-24T09:56:17;96823.28;;;21.82;64.59
26083;BME280;13848;49.018;12.078;2023-07-24T09:58:46;96812.00;;;22.23;63.29
26083;BME280;13848;49.018;12.078;2023-07-24T10:01:13;96804.28;;;22.34;64.06
26083;BME280;13848;49.018;12.078;2023-07-24T10:03:40;96803.34;;;22.65;62.17
26083;BME280;13848;49.018;12.078;2023-07-24T10:06:08;96806.63;;;23.19;61.77
26083;BME280;13848;49.018;12.078;2023-07-24T10:08:34;96798.31;;;23.53;61.21
26083;BME280;13848;49.018;12.078;2023-07-24T10:11:01;96798.97;;;23.68;60.95
26083;BME280;13848;49.018;12.078;2023-07-24T10:13:28;96806.84;;;23.86;59.56
26083;BME280;13848;49.018;12.078;2023-07-24T10:15:56;96795.81;;;23.95;59.30
26083;BME280;13848;49.018;12.078;2023-07-24T10:18:26;96780.81;;;23.84;59.05
26083;BME280;13848;49.018;12.078;2023-07-24T10:21:00;96782.59;;;23.71;59.23
26083;BME280;13848;49.018;12.078;2023-07-24T10:23:26;96783.38;;;23.89;58.69
26083;BME280;13848;49.018;12.078;2023-07-24T10:25:52;96782.91;;;24.16;58.47
26083;BME280;13848;49.018;12.078;2023-07-24T10:28:18;96784.25;;;24.40;58.95
26083;BME280;13848;49.018;12.078;2023-07-24T10:30:44;96777.38;;;24.55;57.62
26083;BME280;13848;49.018;12.078;2023-07-24T10:33:13;96771.25;;;24.20;57.63
26083;BME280;13848;49.018;12.078;2023-07-24T10:35:44;96787.03;;;24.02;57.21
26083;BME280;13848;49.018;12.078;2023-07-24T10:38:11;96794.59;;;24.13;56.94
26083;BME280;13848;49.018;12.078;2023-07-24T10:40:37;96799.31;;;24.04;56.01
26083;BME280;13848;49.018;12.078;2023-07-24T10:43:05;96806.56;;;24.17;56.06
26083;BME280;13848;49.018;12.078;2023-07-24T10:45:42;96803.25;;;24.33;55.98
26083;BME280;13848;49.018;12.078;2023-07-24T10:48:08;96804.63;;;24.77;54.63
26083;BME280;13848;49.018;12.078;2023-07-24T10:50:40;96802.78;;;24.60;51.49
26083;BME280;13848;49.018;12.078;2023-07-24T10:53:06;96807.72;;;24.46;52.10
26083;BME280;13848;49.018;12.078;2023-07-24T10:55:32;96807.31;;;24.27;51.45
26083;BME280;13848;49.018;12.078;2023-07-24T10:57:58;96806.34;;;24.31;52.25
26083;BME280;13848;49.018;12.078;2023-07-24T11:00:25;96798.84;;;24.40;52.03
26083;BME280;13848;49.018;12.078;2023-07-24T11:02:52;96794.50;;;24.31;52.41
26083;BME280;13848;49.018;12.078;2023-07-24T11:05:18;96787.69;;;24.37;52.71
26083;BME280;13848;49.018;12.078;2023-07-24T11:07:46;96785.56;;;24.42;51.96
26083;BME280;13848;49.018;12.078;2023-07-24T11:10:15;96786.38;;;24.43;51.92
26083;BME280;13848;49.018;12.078;2023-07-24T11:12:41;96788.03;;;24.35;51.59
26083;BME280;13848;49.018;12.078;2023-07-24T11:15:08;96774.72;;;24.29;51.03
26083;BME280;13848;49.018;12.078;2023-07-24T11:17:34;96770.53;;;24.31;51.56
26083;BME280;13848;49.018;12.078;2023-07-24T11:20:06;96775.06;;;24.36;51.69
26083;BME280;13848;49.018;12.078;2023-07-24T11:22:33;96772.78;;;24.38;51.34
26083;BME280;13848;49.018;12.078;2023-07-24T11:25:00;96753.41;;;24.47;51.29
26083;BME280;13848;49.018;12.078;2023-07-24T11:27:26;96769.31;;;24.71;50.90
26083;BME280;13848;49.018;12.078;2023-07-24T11:29:52;96775.56;;;24.80;50.90
26083;BME280;13848;49.018;12.078;2023-07-24T11:32:18;96773.59;;;24.80;49.66
26083;BME280;13848;49.018;12.078;2023-07-24T11:34:45;96773.63;;;24.59;49.78
26083;BME280;13848;49.018;12.078;2023-07-24T11:37:12;96769.63;;;24.48;50.48
26083;BME280;13848;49.018;12.078;2023-07-24T11:39:38;96770.38;;;24.36;50.55
26083;BME280;13848;49.018;12.078;2023-07-24T11:42:06;96756.66;;;24.49;50.90
26083;BME280;13848;49.018;12.078;2023-07-24T11:44:32;96754.13;;;24.35;51.35
26083;BME280;13848;49.018;12.078;2023-07-24T11:47:02;96765.53;;;24.54;51.51
26083;BME280;13848;49.018;12.078;2023-07-24T11:49:28;96765.81;;;24.61;51.23
26083;BME280;13848;49.018;12.078;2023-07-24T11:51:59;96777.78;;;24.65;51.41
26083;BME280;13848;49.018;12.078;2023-07-24T11:54:25;96764.59;;;24.50;51.72
26083;BME280;13848;49.018;12.078;2023-07-24T11:56:51;96770.78;;;24.68;51.81
26083;BME280;13848;49.018;12.078;2023-07-24T11:59:18;96775.22;;;24.60;52.42
26083;BME280;13848;49.018;12.078;2023-07-24T12:01:45;96773.75;;;24.63;52.44
26083;BME280;13848;49.018;12.078;2023-07-24T12:04:12;96778.44;;;24.62;52.74
26083;BME280;13848;49.018;12.078;2023-07-24T12:06:38;96777.72;;;24.53;53.19
26083;BME280;13848;49.018;12.078;2023-07-24T12:09:05;96774.28;;;24.56;53.38
26083;BME280;13848;49.018;12.078;2023-07-24T12:11:31;96771.97;;;24.58;53.40
26083;BME280;13848;49.018;12.078;2023-07-24T12:13:57;96761.50;;;24.73;53.09
26083;BME280;13848;49.018;12.078;2023-07-24T12:16:24;96766.28;;;24.63;54.80
26083;BME280;13848;49.018;12.078;2023-07-24T12:18:50;96773.34;;;24.73;54.66
26083;BME280;13848;49.018;12.078;2023-07-24T12:21:16;96759.38;;;24.78;55.21
26083;BME280;13848;49.018;12.078;2023-07-24T12:23:42;96764.34;;;24.85;55.35
26083;BME280;13848;49.018;12.078;2023-07-24T12:26:08;96774.41;;;24.81;55.47
26083;BME280;13848;49.018;12.078;2023-07-24T12:28:34;96781.97;;;24.72;55.79
26083;BME280;13848;49.018;12.078;2023-07-24T12:31:00;96771.19;;;24.79;55.52
26083;BME280;13848;49.018;12.078;2023-07-24T12:33:27;96786.13;;;24.78;55.15
26083;BME280;13848;49.018;12.078;2023-07-24T12:35:53;96783.19;;;24.83;55.36
26083;BME280;13848;49.018;12.078;2023-07-24T12:38:19;96784.78;;;24.84;55.58
26083;BME280;13848;49.018;12.078;2023-07-24T12:40:45;96778.47;;;24.83;55.47
26083;BME280;13848;49.018;12.078;2023-07-24T12:43:11;96788.53;;;24.79;55.10
26083;BME280;13848;49.018;12.078;2023-07-24T12:45:37;96820.56;;;24.72;55.78
26083;BME280;13848;49.018;12.078;2023-07-24T12:48:03;96845.41;;;24.63;55.74
26083;BME280;13848;49.018;12.078;2023-07-24T12:50:30;96891.22;;;24.47;56.43